Time;durP1;ratioP1;P1;durP2;ratioP2;P2;SDS_P1;SDS_P2;PMS_P1;PMS_P2;Temp;Humidity;BMP_temperature;BMP_pressure;BME280_temperature;BME280_humidity;BME280_pressure;Samples;Min_cycle;Max_cycle;Signal;HPM_P1;HPM_P2
2023/01/07 00:01:06;;;;;;;86.95;35.13;;;8.70;99.90;;;;;;4918235;28;20047;-79
2023/01/07 00:03:32;;;;;;;79.20;35.30;;;8.80;99.90;;;;;;4937779;29;20044;-79
2023/01/07 00:06:03;;;;;;;87.00;37.33;;;8.80;99.90;;;;;;4922427;29;20062;-80
2023/01/07 00:08:30;;;;;;;76.60;34.45;;;8.80;99.90;;;;;;4923085;29;20055;-76
2023/01/07 00:10:59;;;;;;;78.18;31.67;;;8.80;99.90;;;;;;4920984;28;20071;-78
2023/01/07 00:13:25;;;;;;;76.38;35.95;;;8.80;99.90;;;;;;4921353;29;20055;-78
2023/01/07 00:15:50;;;;;;;73.32;35.15;;;8.90;99.90;;;;;;4925096;29;20036;-78
2023/01/07 00:18:16;;;;;;;77.25;31.67;;;8.90;99.90;;;;;;4924359;29;20048;-78
2023/01/07 00:20:41;;;;;;;82.65;35.58;;;8.90;99.90;;;;;;4922373;28;20047;-78
2023/01/07 00:23:07;;;;;;;66.93;30.52;;;9.00;99.90;;;;;;4922920;29;20494;-78
2023/01/07 00:25:33;;;;;;;63.28;29.73;;;9.00;99.90;;;;;;4925569;28;20067;-78
2023/01/07 00:27:58;;;;;;;67.78;30.95;;;9.00;99.90;;;;;;4924911;28;20048;-78
2023/01/07 00:30:24;;;;;;;59.22;26.40;;;9.00;99.90;;;;;;4925084;29;20470;-78
2023/01/07 00:32:58;;;;;;;65.40;25.38;;;9.00;99.90;;;;;;4924949;28;20101;-79
2023/01/07 00:35:24;;;;;;;64.75;26.52;;;9.10;99.90;;;;;;4924575;29;20048;-78
2023/01/07 00:37:52;;;;;;;66.25;27.48;;;9.10;99.90;;;;;;4924717;29;20208;-79
2023/01/07 00:40:18;;;;;;;57.08;25.05;;;9.10;99.90;;;;;;4922027;29;20050;-78
2023/01/07 00:42:53;;;;;;;58.97;25.67;;;9.10;99.90;;;;;;4917265;29;20058;-78
2023/01/07 00:45:23;;;;;;;65.22;26.45;;;9.10;99.90;;;;;;4906116;29;20059;-79
2023/01/07 00:47:52;;;;;;;69.25;27.77;;;9.10;99.90;;;;;;4921452;29;20040;-79
2023/01/07 00:50:22;;;;;;;60.88;27.55;;;9.10;99.90;;;;;;4922863;29;20101;-78
2023/01/07 00:52:48;;;;;;;64.95;26.33;;;9.20;99.90;;;;;;4914002;29;20123;-78
2023/01/07 00:55:14;;;;;;;70.70;28.05;;;9.20;99.90;;;;;;4907247;28;20123;-78
2023/01/07 00:57:40;;;;;;;63.38;27.40;;;9.20;99.90;;;;;;4910272;29;20075;-78
2023/01/07 01:00:08;;;;;;;66.88;26.25;;;9.20;99.90;;;;;;4923332;29;20059;-78
2023/01/07 01:02:33;;;;;;;60.80;29.40;;;9.20;99.90;;;;;;4924637;29;20105;-78
2023/01/07 01:04:59;;;;;;;67.03;30.73;;;9.30;99.90;;;;;;4907785;29;20064;-78
2023/01/07 01:07:25;;;;;;;52.80;27.48;;;9.30;99.90;;;;;;4910289;28;20418;-77
2023/01/07 01:09:50;;;;;;;70.70;29.77;;;9.30;99.90;;;;;;4924508;29;20556;-78
2023/01/07 01:12:16;;;;;;;69.18;29.85;;;9.30;99.90;;;;;;4923153;29;20051;-78
2023/01/07 01:14:41;;;;;;;62.63;28.30;;;9.30;99.90;;;;;;4913386;28;20067;-77
2023/01/07 01:17:07;;;;;;;73.72;30.48;;;9.40;99.90;;;;;;4922910;28;20054;-78
2023/01/07 01:19:32;;;;;;;67.72;29.02;;;9.40;99.90;;;;;;4921354;29;20419;-77
2023/01/07 01:21:58;;;;;;;71.68;31.45;;;9.40;99.90;;;;;;4922946;29;20058;-77
2023/01/07 01:24:23;;;;;;;69.93;34.28;;;9.50;99.90;;;;;;4923214;29;20042;-77
2023/01/07 01:26:49;;;;;;;76.68;31.13;;;9.50;99.90;;;;;;4923916;29;20036;-78
2023/01/07 01:29:15;;;;;;;88.20;36.90;;;9.50;99.90;;;;;;4924752;29;20548;-77
2023/01/07 01:31:40;;;;;;;73.43;31.95;;;9.50;99.90;;;;;;4924422;29;20048;-77
2023/01/07 01:34:06;;;;;;;92.38;36.35;;;9.50;99.90;;;;;;4923828;29;20071;-78
2023/01/07 01:36:31;;;;;;;69.97;33.15;;;9.50;99.90;;;;;;4923619;29;20043;-77
2023/01/07 01:38:57;;;;;;;89.38;38.38;;;9.50;99.90;;;;;;4923551;29;20112;-78
2023/01/07 01:41:22;;;;;;;83.90;35.03;;;9.50;99.90;;;;;;4923599;29;20047;-78
2023/01/07 01:43:48;;;;;;;89.07;36.65;;;9.50;99.90;;;;;;4912806;29;20104;-78
2023/01/07 01:46:36;;;;;;;92.82;36.15;;;9.50;99.90;;;;;;4917791;28;20036;-78
2023/01/07 01:49:27;;;;;;;78.63;36.05;;;9.50;99.90;;;;;;4903663;29;20348;-78
2023/01/07 01:52:02;;;;;;;76.45;34.35;;;9.50;99.90;;;;;;4913507;28;20181;-78
2023/01/07 01:54:28;;;;;;;76.47;37.35;;;9.50;99.90;;;;;;4924516;28;20040;-77
2023/01/07 01:56:57;;;;;;;77.97;36.60;;;9.60;99.90;;;;;;4906660;29;20040;-77
2023/01/07 01:59:27;;;;;;;80.63;34.35;;;9.50;99.90;;;;;;4920218;29;20051;-78
2023/01/07 02:01:53;;;;;;;73.18;32.13;;;9.60;99.90;;;;;;4923599;28;20052;-77
2023/01/07 02:04:21;;;;;;;68.70;32.83;;;9.60;99.90;;;;;;4911928;29;20483;-79
2023/01/07 02:06:53;;;;;;;67.70;35.42;;;9.60;99.90;;;;;;4903902;29;20143;-77
2023/01/07 02:09:19;;;;;;;67.15;34.80;;;9.60;99.90;;;;;;4905784;29;20086;-78
2023/01/07 02:11:56;;;;;;;75.85;33.00;;;9.60;99.90;;;;;;4922431;29;20079;-77
2023/01/07 02:14:50;;;;;;;70.15;33.97;;;9.60;99.90;;;;;;4923497;29;20047;-78
2023/01/07 02:17:34;;;;;;;67.38;34.17;;;9.60;99.90;;;;;;4923909;29;20134;-78
2023/01/07 02:20:23;;;;;;;60.35;30.58;;;9.60;99.90;;;;;;4922323;29;20048;-78
2023/01/07 02:23:14;;;;;;;73.28;32.28;;;9.60;99.90;;;;;;4923259;28;20359;-79
2023/01/07 02:26:12;;;;;;;69.03;31.90;;;9.60;99.90;;;;;;4916116;28;20049;-77
2023/01/07 02:28:46;;;;;;;63.05;30.92;;;9.60;99.90;;;;;;4918233;28;20048;-78
2023/01/07 02:31:49;;;;;;;67.38;31.67;;;9.60;99.90;;;;;;4912204;29;20086;-77
2023/01/07 02:34:24;;;;;;;;;;;9.60;99.90;;;;;;4908838;29;20473;-77
2023/01/07 02:37:10;;;;;;;67.45;31.63;;;9.60;99.90;;;;;;4925075;29;19922;-78
2023/01/07 02:40:00;;;;;;;63.10;31.65;;;9.60;99.90;;;;;;4925211;29;20035;-77
2023/01/07 02:42:39;;;;;;;69.38;29.67;;;9.60;99.90;;;;;;4926742;29;20186;-77
2023/01/07 02:45:17;;;;;;;64.45;29.80;;;9.60;99.90;;;;;;4926537;29;20438;-77
2023/01/07 02:47:49;;;;;;;65.35;30.25;;;9.60;99.90;;;;;;4925262;29;20059;-77
2023/01/07 02:50:15;;;;;;;71.65;32.58;;;9.70;99.90;;;;;;4915975;29;20048;-77
2023/01/07 02:52:40;;;;;;;56.85;30.08;;;9.60;99.90;;;;;;4926619;29;20066;-77
2023/01/07 02:55:14;;;;;;;56.72;28.23;;;9.70;99.90;;;;;;4912950;29;20071;-77
2023/01/07 02:58:18;;;;;;;61.33;29.30;;;9.60;99.90;;;;;;4972775;23;20086;-77
2023/01/07 03:00:56;;;;;;;54.03;28.90;;;9.60;99.90;;;;;;4980474;28;20049;-77
2023/01/07 03:03:33;;;;;;;54.53;26.30;;;9.60;99.90;;;;;;4916931;29;20056;-77
2023/01/07 03:06:29;;;;;;;50.67;25.33;;;9.60;99.90;;;;;;4909453;29;20091;-77
2023/01/07 03:09:36;;;;;;;47.70;26.17;;;9.60;99.90;;;;;;4907690;28;20114;-78
2023/01/07 03:12:08;;;;;;;47.72;24.92;;;9.70;99.90;;;;;;4907858;29;20056;-77
2023/01/07 03:14:54;;;;;;;47.10;24.77;;;9.60;99.90;;;;;;4908170;29;20490;-77
2023/01/07 03:17:25;;;;;;;47.85;24.20;;;9.60;99.90;;;;;;4907776;29;20036;-78
2023/01/07 03:19:55;;;;;;;48.15;24.17;;;9.60;99.90;;;;;;4910671;28;20490;-77
2023/01/07 03:22:24;;;;;;;43.17;23.30;;;9.60;99.90;;;;;;4907553;29;20048;-78
2023/01/07 03:24:51;;;;;;;44.78;23.58;;;9.60;99.90;;;;;;4916189;28;20048;-78
2023/01/07 03:27:19;;;;;;;40.55;22.63;;;9.60;99.90;;;;;;4927144;29;20497;-77
2023/01/07 03:29:47;;;;;;;42.35;20.38;;;9.60;99.90;;;;;;4911624;29;20461;-77
2023/01/07 03:32:14;;;;;;;46.05;24.73;;;9.60;99.90;;;;;;4926482;29;20044;-77
2023/01/07 03:34:42;;;;;;;46.78;24.10;;;9.60;99.90;;;;;;4926247;29;20044;-77
2023/01/07 03:37:15;;;;;;;46.40;22.90;;;9.60;99.90;;;;;;4926324;29;20502;-77
2023/01/07 03:39:43;;;;;;;48.88;23.50;;;9.60;99.90;;;;;;4925246;28;20043;-77
2023/01/07 03:44:55;;;;;;;39.22;20.73;;;9.60;99.90;;;;;;4926365;29;20078;-77
2023/01/07 03:47:21;;;;;;;32.28;18.85;;;9.60;99.90;;;;;;4925188;28;20146;-78
2023/01/07 03:49:46;;;;;;;35.72;20.95;;;9.60;99.90;;;;;;4905921;29;20050;-77
2023/01/07 03:52:12;;;;;;;37.63;20.48;;;9.60;99.90;;;;;;4921173;29;20154;-77
2023/01/07 03:54:38;;;;;;;36.47;21.42;;;9.60;99.90;;;;;;4925026;28;20040;-77
2023/01/07 03:57:03;;;;;;;36.75;20.63;;;9.60;99.90;;;;;;4925768;29;20609;-77
2023/01/07 03:59:29;;;;;;;32.10;18.85;;;9.60;99.90;;;;;;4923387;29;20059;-77
2023/01/07 04:01:54;;;;;;;37.45;20.48;;;9.60;99.90;;;;;;4915308;29;20052;-77
2023/01/07 04:04:20;;;;;;;37.08;19.73;;;9.60;99.90;;;;;;4910557;29;20055;-78
2023/01/07 04:06:46;;;;;;;33.97;19.20;;;9.60;99.90;;;;;;4925037;29;20058;-77
2023/01/07 04:09:13;;;;;;;31.67;17.42;;;9.60;99.90;;;;;;4923946;28;20047;-77
2023/01/07 04:11:40;;;;;;;28.05;16.73;;;9.50;99.90;;;;;;4925509;29;20485;-77
2023/01/07 04:14:06;;;;;;;31.92;17.65;;;9.60;99.90;;;;;;4924554;29;20090;-77
2023/01/07 04:16:31;;;;;;;36.03;17.73;;;9.50;99.90;;;;;;4915580;28;20048;-77
2023/01/07 04:18:57;;;;;;;24.63;16.45;;;9.60;99.90;;;;;;4906443;28;20498;-77
2023/01/07 04:21:23;;;;;;;26.65;17.45;;;9.50;99.90;;;;;;4905021;29;20264;-77
2023/01/07 04:23:48;;;;;;;30.17;16.55;;;9.50;99.90;;;;;;4906709;29;20048;-79
2023/01/07 04:26:14;;;;;;;31.27;20.23;;;9.50;99.90;;;;;;4908400;29;20098;-77
2023/01/07 04:28:39;;;;;;;27.83;16.35;;;9.50;99.90;;;;;;4925542;29;20047;-77
2023/01/07 04:31:05;;;;;;;31.83;18.13;;;9.50;99.90;;;;;;4924482;29;20113;-77
2023/01/07 04:33:30;;;;;;;29.80;18.00;;;9.50;99.90;;;;;;4924989;29;20494;-77
2023/01/07 04:35:56;;;;;;;26.15;14.98;;;9.50;99.90;;;;;;4923931;29;20531;-77
2023/01/07 04:38:22;;;;;;;26.02;15.27;;;9.50;99.90;;;;;;4935154;28;20043;-77
2023/01/07 04:40:48;;;;;;;33.58;15.02;;;9.50;99.90;;;;;;4925730;29;20052;-76
2023/01/07 04:43:14;;;;;;;21.55;15.35;;;9.60;99.90;;;;;;4925225;29;20424;-77
2023/01/07 04:45:39;;;;;;;32.05;17.75;;;9.60;99.90;;;;;;4925192;29;20044;-77
2023/01/07 04:48:05;;;;;;;27.15;16.63;;;9.60;99.90;;;;;;4923128;29;20444;-77
2023/01/07 04:50:31;;;;;;;26.25;17.88;;;9.60;99.90;;;;;;4913419;28;20066;-77
2023/01/07 04:52:57;;;;;;;28.55;17.13;;;9.60;99.90;;;;;;4915262;29;20439;-77
2023/01/07 04:55:22;;;;;;;21.70;14.38;;;9.60;99.90;;;;;;4918806;29;20513;-77
2023/01/07 04:57:48;;;;;;;20.08;13.95;;;9.70;99.90;;;;;;4924881;29;20131;-77
2023/01/07 05:00:14;;;;;;;23.48;14.43;;;9.70;99.90;;;;;;4924695;28;20075;-77
2023/01/07 05:02:39;;;;;;;26.27;16.13;;;9.70;99.90;;;;;;4923162;29;20047;-77
2023/01/07 05:05:06;;;;;;;22.83;15.05;;;9.60;99.90;;;;;;4924173;29;20569;-77
2023/01/07 05:07:32;;;;;;;17.63;14.18;;;9.70;99.90;;;;;;4923934;29;20580;-77
2023/01/07 05:09:57;;;;;;;21.80;15.02;;;9.70;99.90;;;;;;4924075;29;20052;-77
2023/01/07 05:12:23;;;;;;;21.00;13.48;;;9.70;99.90;;;;;;4924512;29;20425;-77
2023/01/07 05:14:49;;;;;;;23.60;15.00;;;9.70;99.90;;;;;;4924615;28;20063;-79
2023/01/07 05:17:14;;;;;;;22.83;12.48;;;9.70;99.90;;;;;;4924885;28;20046;-77
2023/01/07 05:19:40;;;;;;;22.70;13.50;;;9.70;99.90;;;;;;4906579;29;20244;-77
2023/01/07 05:22:05;;;;;;;18.60;12.98;;;9.70;99.90;;;;;;4924149;29;20127;-77
2023/01/07 05:24:31;;;;;;;26.80;15.75;;;9.70;99.90;;;;;;4922793;28;20070;-77
2023/01/07 05:26:56;;;;;;;16.20;13.10;;;9.60;99.90;;;;;;4924092;29;20040;-77
2023/01/07 05:29:22;;;;;;;20.70;12.63;;;9.60;99.90;;;;;;4922773;29;20079;-78
2023/01/07 05:31:47;;;;;;;20.88;11.57;;;9.60;99.90;;;;;;4924453;28;20048;-77
2023/01/07 05:34:13;;;;;;;17.80;12.30;;;9.60;99.90;;;;;;4922988;28;20051;-77
2023/01/07 05:36:38;;;;;;;16.95;11.30;;;9.60;99.90;;;;;;4923850;29;20040;-77
2023/01/07 05:39:04;;;;;;;17.20;11.68;;;9.50;99.90;;;;;;4923740;29;20044;-77
2023/01/07 05:41:30;;;;;;;20.67;13.05;;;9.50;99.90;;;;;;4923947;29;20040;-77
2023/01/07 05:43:55;;;;;;;15.98;11.43;;;9.50;99.90;;;;;;4922624;29;20422;-77
2023/01/07 05:46:21;;;;;;;21.38;14.73;;;9.50;99.90;;;;;;4924293;28;20132;-77
2023/01/07 05:48:46;;;;;;;20.00;13.88;;;9.50;99.90;;;;;;4908975;29;20103;-77
2023/01/07 05:51:12;;;;;;;20.25;16.13;;;9.40;99.90;;;;;;4917917;29;20502;-77
2023/01/07 05:53:38;;;;;;;17.38;11.95;;;9.50;99.90;;;;;;4919932;29;20823;-77
2023/01/07 05:56:03;;;;;;;22.08;13.07;;;9.50;99.90;;;;;;4916948;29;20040;-77
2023/01/07 05:58:29;;;;;;;19.95;13.57;;;9.50;99.90;;;;;;4903219;28;20139;-77
2023/01/07 06:00:55;;;;;;;17.08;12.40;;;9.50;99.90;;;;;;4910683;29;20540;-77
2023/01/07 06:03:21;;;;;;;20.50;13.60;;;9.50;99.90;;;;;;4922527;29;20535;-77
2023/01/07 06:05:47;;;;;;;24.83;13.27;;;9.50;99.90;;;;;;4910104;29;20044;-77
2023/01/07 06:08:14;;;;;;;19.15;11.20;;;9.40;99.90;;;;;;4916996;28;20097;-77
2023/01/07 06:10:40;;;;;;;23.13;12.88;;;9.40;99.90;;;;;;4958259;28;20052;-77
2023/01/07 06:13:06;;;;;;;17.83;10.35;;;9.40;99.90;;;;;;4910160;29;20044;-77
2023/01/07 06:15:31;;;;;;;18.73;12.63;;;9.40;99.90;;;;;;4906115;29;20113;-77
2023/01/07 06:17:57;;;;;;;21.05;12.20;;;9.40;99.90;;;;;;4921620;29;20044;-77
2023/01/07 06:20:23;;;;;;;22.55;12.93;;;9.40;99.90;;;;;;4922589;29;20501;-77
2023/01/07 06:22:49;;;;;;;22.42;13.40;;;9.40;99.90;;;;;;4919094;29;20119;-78
2023/01/07 06:25:15;;;;;;;17.90;13.40;;;9.40;99.90;;;;;;4905138;29;20123;-77
2023/01/07 06:27:41;;;;;;;18.30;12.95;;;9.40;99.90;;;;;;4916578;29;20052;-77
2023/01/07 06:30:08;;;;;;;24.77;11.88;;;9.40;99.90;;;;;;4909771;29;20055;-77
2023/01/07 06:32:41;;;;;;;16.90;11.20;;;9.40;99.90;;;;;;4905551;28;20102;-77
2023/01/07 06:35:09;;;;;;;15.55;10.90;;;9.30;99.90;;;;;;4922186;28;20044;-77
2023/01/07 06:37:34;;;;;;;22.45;12.07;;;9.30;99.90;;;;;;4919676;28;20052;-77
2023/01/07 06:40:00;;;;;;;20.98;11.55;;;9.30;99.90;;;;;;4902939;29;20574;-77
2023/01/07 06:42:26;;;;;;;32.85;12.02;;;9.30;99.90;;;;;;4904699;29;20040;-77
2023/01/07 06:44:51;;;;;;;15.63;11.15;;;9.30;99.90;;;;;;4903698;29;20464;-77
2023/01/07 06:47:17;;;;;;;16.10;10.32;;;9.30;99.90;;;;;;4905126;29;20036;-77
2023/01/07 06:49:42;;;;;;;19.25;11.30;;;9.30;99.90;;;;;;4912139;29;20078;-77
2023/01/07 06:52:08;;;;;;;14.55;11.27;;;9.30;99.90;;;;;;4994673;28;20036;-77
2023/01/07 06:54:34;;;;;;;17.45;11.40;;;9.30;99.90;;;;;;4935735;29;20512;-77
2023/01/07 06:56:59;;;;;;;23.15;12.20;;;9.20;99.90;;;;;;4918802;28;20124;-77
2023/01/07 06:59:25;;;;;;;21.10;14.30;;;9.20;99.90;;;;;;4904305;29;20056;-77
2023/01/07 07:01:50;;;;;;;14.60;10.48;;;9.20;99.90;;;;;;4903990;29;20048;-78
2023/01/07 07:04:16;;;;;;;16.63;10.75;;;9.20;99.90;;;;;;4920516;29;20127;-77
2023/01/07 07:06:42;;;;;;;15.18;10.50;;;9.20;99.90;;;;;;4923055;29;20556;-77
2023/01/07 07:09:07;;;;;;;13.38;10.80;;;9.20;99.90;;;;;;4922794;29;20174;-77
2023/01/07 07:11:33;;;;;;;23.80;11.73;;;9.20;99.90;;;;;;4923406;29;20048;-77
2023/01/07 07:13:58;;;;;;;16.52;9.55;;;9.20;99.90;;;;;;4916474;28;20395;-77
2023/01/07 07:16:24;;;;;;;16.80;11.50;;;9.20;99.90;;;;;;4903188;29;20044;-77
2023/01/07 07:18:51;;;;;;;18.60;10.70;;;9.20;99.90;;;;;;4910000;29;20093;-78
2023/01/07 07:21:17;;;;;;;18.30;12.60;;;9.30;99.90;;;;;;4923783;29;20139;-77
2023/01/07 07:23:43;;;;;;;18.08;12.90;;;9.20;99.90;;;;;;4914042;29;20131;-77
2023/01/07 07:26:09;;;;;;;16.98;9.90;;;9.20;99.90;;;;;;4925375;29;20082;-77
2023/01/07 07:28:35;;;;;;;17.52;12.43;;;9.20;99.90;;;;;;4921065;28;20592;-77
2023/01/07 07:31:01;;;;;;;22.83;12.23;;;9.20;99.90;;;;;;4925296;28;20036;-77
2023/01/07 07:33:26;;;;;;;28.42;12.05;;;9.20;99.90;;;;;;4925919;29;20628;-77
2023/01/07 07:35:53;;;;;;;20.13;11.68;;;9.20;99.90;;;;;;4923737;28;20494;-77
2023/01/07 07:38:19;;;;;;;14.90;10.80;;;9.20;99.90;;;;;;4925835;29;20363;-78
2023/01/07 07:40:46;;;;;;;15.50;12.07;;;9.20;99.90;;;;;;4926202;28;20054;-77
2023/01/07 07:43:12;;;;;;;17.40;10.23;;;9.20;99.90;;;;;;4925495;29;20130;-77
2023/01/07 07:45:39;;;;;;;18.33;10.05;;;9.20;99.90;;;;;;4924534;29;20044;-77
2023/01/07 07:48:06;;;;;;;16.67;10.95;;;9.20;99.90;;;;;;4925965;29;20126;-77
2023/01/07 07:50:32;;;;;;;16.40;11.85;;;9.20;99.90;;;;;;4924941;29;20083;-77
2023/01/07 07:52:58;;;;;;;15.02;11.00;;;9.10;99.90;;;;;;4923986;29;20078;-77
2023/01/07 07:55:23;;;;;;;12.70;8.30;;;9.10;99.90;;;;;;4914906;29;20049;-77
2023/01/07 07:57:51;;;;;;;12.40;9.57;;;9.10;99.90;;;;;;4918469;28;20566;-78
2023/01/07 08:00:17;;;;;;;17.58;9.48;;;9.10;99.90;;;;;;4917274;29;20417;-77
2023/01/07 08:02:42;;;;;;;15.93;9.60;;;9.10;99.90;;;;;;4918573;29;20047;-77
2023/01/07 08:05:10;;;;;;;14.98;9.32;;;9.10;99.90;;;;;;4922649;29;20062;-77
2023/01/07 08:07:35;;;;;;;13.55;9.82;;;9.10;99.90;;;;;;4918563;28;20047;-77
2023/01/07 08:10:01;;;;;;;13.10;8.48;;;9.10;99.90;;;;;;4915237;28;20044;-77
2023/01/07 08:12:27;;;;;;;12.45;9.15;;;9.10;99.90;;;;;;4924149;29;20039;-77
2023/01/07 08:14:52;;;;;;;11.38;8.23;;;9.10;99.90;;;;;;4919059;29;20086;-77
2023/01/07 08:17:18;;;;;;;12.95;7.30;;;9.10;99.90;;;;;;4921379;28;20490;-77
2023/01/07 08:19:43;;;;;;;10.20;6.55;;;9.10;99.90;;;;;;4905575;28;20032;-77
2023/01/07 08:22:09;;;;;;;10.40;7.47;;;9.20;99.90;;;;;;4905583;29;20048;-77
2023/01/07 08:24:35;;;;;;;13.90;7.70;;;9.10;99.90;;;;;;4906994;28;20312;-77
2023/01/07 08:27:00;;;;;;;11.48;7.88;;;9.10;99.90;;;;;;4912581;29;20039;-79
2023/01/07 08:29:26;;;;;;;6.85;5.68;;;9.10;99.90;;;;;;4925757;29;20044;-77
2023/01/07 08:31:51;;;;;;;13.88;7.18;;;9.10;99.90;;;;;;4921047;28;20683;-78
2023/01/07 08:34:17;;;;;;;9.88;7.15;;;9.10;99.90;;;;;;4923213;29;20436;-78
2023/01/07 08:36:42;;;;;;;8.10;6.07;;;9.10;99.90;;;;;;4925566;28;20105;-78
2023/01/07 08:39:08;;;;;;;8.38;6.07;;;9.10;99.90;;;;;;4897099;29;20052;-77
2023/01/07 08:41:34;;;;;;;7.70;6.10;;;9.10;99.90;;;;;;4911646;29;20503;-76
2023/01/07 08:43:59;;;;;;;10.30;5.43;;;9.10;99.90;;;;;;4921127;29;20136;-77
2023/01/07 08:46:25;;;;;;;8.77;6.25;;;9.10;99.90;;;;;;4909936;29;20047;-76
2023/01/07 08:48:50;;;;;;;6.88;5.80;;;9.10;99.90;;;;;;4923416;29;20491;-77
2023/01/07 08:51:16;;;;;;;7.75;5.38;;;9.10;99.90;;;;;;4914932;29;20062;-76
2023/01/07 08:53:41;;;;;;;7.63;5.30;;;9.10;99.90;;;;;;4914061;28;20051;-76
2023/01/07 08:56:07;;;;;;;5.57;4.40;;;9.10;99.90;;;;;;4908739;28;20051;-77
2023/01/07 08:58:33;;;;;;;10.45;5.78;;;9.10;99.90;;;;;;4917896;29;20559;-76
2023/01/07 09:01:04;;;;;;;5.75;5.05;;;9.10;99.90;;;;;;4924533;28;20058;-77
2023/01/07 09:03:30;;;;;;;7.55;4.88;;;9.10;99.90;;;;;;4924687;29;20075;-77
2023/01/07 09:05:55;;;;;;;8.95;6.57;;;9.10;99.90;;;;;;4924668;29;20486;-76
2023/01/07 09:08:21;;;;;;;8.60;5.28;;;9.10;99.90;;;;;;4924369;29;20642;-77
2023/01/07 09:10:46;;;;;;;7.32;4.40;;;9.10;99.90;;;;;;4917030;29;20051;-77
2023/01/07 09:13:12;;;;;;;7.85;4.55;;;9.00;99.90;;;;;;4910356;28;20067;-77
2023/01/07 09:15:37;;;;;;;6.18;4.07;;;9.10;99.90;;;;;;4924162;29;20571;-76
2023/01/07 09:18:03;;;;;;;5.55;3.88;;;9.10;99.90;;;;;;4908457;29;20403;-76
2023/01/07 09:20:29;;;;;;;6.22;5.03;;;9.10;99.90;;;;;;4913608;29;20052;-76
2023/01/07 09:22:55;;;;;;;4.50;3.35;;;9.10;99.90;;;;;;4920632;29;20070;-77
2023/01/07 09:25:20;;;;;;;7.53;4.45;;;9.10;99.90;;;;;;4922379;28;20048;-77
2023/01/07 09:27:46;;;;;;;5.22;4.15;;;9.10;99.90;;;;;;4917044;29;20040;-77
2023/01/07 09:30:12;;;;;;;8.45;5.35;;;9.10;99.90;;;;;;4921080;29;20039;-77
2023/01/07 09:32:38;;;;;;;5.22;3.67;;;9.10;99.90;;;;;;4919425;28;20098;-77
2023/01/07 09:35:05;;;;;;;5.63;3.97;;;9.10;99.90;;;;;;4923466;28;20062;-77
2023/01/07 09:37:31;;;;;;;4.15;3.53;;;9.10;99.90;;;;;;4918845;29;20105;-78
2023/01/07 09:39:56;;;;;;;4.50;3.53;;;9.10;99.90;;;;;;4913286;29;20051;-77
2023/01/07 09:42:40;;;;;;;4.30;2.95;;;9.00;99.90;;;;;;4916102;29;20054;-78
2023/01/07 09:45:19;;;;;;;3.78;2.75;;;9.10;99.90;;;;;;4923018;28;20461;-77
2023/01/07 09:47:49;;;;;;;6.05;3.25;;;9.10;99.90;;;;;;4929149;28;20131;-78
2023/01/07 09:50:33;;;;;;;6.82;3.58;;;9.10;99.90;;;;;;4912464;29;20439;-79
2023/01/07 09:53:05;;;;;;;6.65;3.30;;;9.10;99.90;;;;;;4920124;28;20032;-79
2023/01/07 09:55:33;;;;;;;;;;;9.10;99.90;;;;;;4904879;28;20067;-79
2023/01/07 09:57:58;;;;;;;5.80;3.92;;;9.10;99.90;;;;;;4907885;29;19923;-79
2023/01/07 10:00:24;;;;;;;5.60;3.78;;;9.10;99.90;;;;;;4913281;29;20055;-80
2023/01/07 10:03:02;;;;;;;3.90;2.47;;;9.10;99.90;;;;;;4913499;28;20709;-79
2023/01/07 10:06:05;;;;;;;6.00;3.42;;;9.10;99.90;;;;;;4908460;28;20049;-79
2023/01/07 10:09:03;;;;;;;5.15;3.53;;;9.20;99.90;;;;;;4921954;29;21647;-80
2023/01/07 10:12:12;;;;;;;3.88;2.17;;;9.20;99.90;;;;;;4909884;28;20149;-79
2023/01/07 10:15:09;;;;;;;3.72;2.00;;;9.20;99.90;;;;;;4947044;28;20118;-80
2023/01/07 10:17:47;;;;;;;2.97;2.47;;;9.20;99.90;;;;;;4915834;29;20286;-80
2023/01/07 10:20:33;;;;;;;3.78;2.60;;;9.20;99.90;;;;;;4907051;29;20048;-79
2023/01/07 10:23:06;;;;;;;2.55;2.33;;;9.30;99.90;;;;;;4912115;28;20040;-80
2023/01/07 10:25:41;;;;;;;4.80;2.53;;;9.30;99.90;;;;;;4904978;29;20043;-79
2023/01/07 10:28:28;;;;;;;4.22;1.83;;;9.30;99.90;;;;;;4920003;29;20048;-78
2023/01/07 10:30:53;;;;;;;4.72;2.25;;;9.30;99.90;;;;;;4923394;29;20490;-78
2023/01/07 10:33:27;;;;;;;2.33;1.70;;;9.30;99.90;;;;;;4922807;29;20047;-79
2023/01/07 10:36:03;;;;;;;2.35;1.60;;;9.30;99.90;;;;;;4922798;29;20040;-80
2023/01/07 10:38:33;;;;;;;2.22;2.10;;;9.40;99.90;;;;;;4907499;28;20035;-80
2023/01/07 10:41:05;;;;;;;3.15;2.53;;;9.40;99.90;;;;;;4916686;29;20154;-79
2023/01/07 10:44:03;;;;;;;5.55;2.53;;;9.40;99.90;;;;;;4916830;29;20106;-85
2023/01/07 10:46:43;;;;;;;2.03;1.83;;;9.40;99.90;;;;;;4919186;28;20060;-82
2023/01/07 10:49:33;;;;;;;3.45;2.08;;;9.40;99.90;;;;;;4909328;28;20553;-84
2023/01/07 10:52:10;;;;;;;2.15;1.50;;;9.40;99.90;;;;;;4917139;28;20048;-89
2023/01/07 10:55:01;;;;;;;2.97;2.08;;;9.40;99.90;;;;;;4948866;28;20473;-85
2023/01/07 10:57:28;;;;;;;2.35;1.77;;;9.40;99.90;;;;;;4920498;28;20064;-84
2023/01/07 11:00:01;;;;;;;6.20;2.65;;;9.50;99.90;;;;;;4925032;29;20048;-82
2023/01/07 11:02:27;;;;;;;;;;;9.50;99.90;;;;;;4915119;29;20057;-84
2023/01/07 11:04:54;;;;;;;2.33;1.83;;;9.50;99.90;;;;;;4907416;29;19923;-86
2023/01/07 11:07:26;;;;;;;2.78;1.92;;;9.50;99.90;;;;;;4911074;29;20047;-85
2023/01/07 11:09:55;;;;;;;2.50;2.08;;;9.50;99.90;;;;;;4924991;29;20545;-87
2023/01/07 11:12:40;;;;;;;4.13;2.10;;;9.60;99.90;;;;;;4922044;28;20098;-84
2023/01/07 11:15:13;;;;;;;3.08;2.00;;;9.60;99.90;;;;;;4915403;28;20036;-84
2023/01/07 11:18:03;;;;;;;3.83;2.55;;;9.60;99.90;;;;;;4918575;28;20046;-82
2023/01/07 11:20:56;;;;;;;1.75;1.58;;;9.60;99.90;;;;;;4918955;29;20127;-82
2023/01/07 11:23:29;;;;;;;2.15;1.92;;;9.70;99.90;;;;;;4918117;29;20052;-81
2023/01/07 11:26:05;;;;;;;3.75;1.90;;;9.70;99.90;;;;;;4928593;28;20044;-86
2023/01/07 11:28:32;;;;;;;2.00;1.80;;;9.70;99.90;;;;;;4916691;28;20050;-87
2023/01/07 11:31:00;;;;;;;1.40;1.30;;;9.70;99.90;;;;;;4925786;28;20062;-84
2023/01/07 11:33:36;;;;;;;1.75;1.65;;;9.80;99.90;;;;;;4928971;28;20078;-81
2023/01/07 11:36:04;;;;;;;1.52;1.42;;;9.80;99.90;;;;;;4923732;29;20450;-81
2023/01/07 11:38:32;;;;;;;1.63;1.15;;;9.80;99.90;;;;;;4913897;28;20069;-78
2023/01/07 11:40:59;;;;;;;2.63;1.52;;;9.80;99.90;;;;;;4917343;28;20048;-80
2023/01/07 11:43:39;;;;;;;1.23;1.10;;;9.80;99.90;;;;;;4916119;28;20443;-79
2023/01/07 11:46:12;;;;;;;1.08;0.70;;;9.80;99.90;;;;;;4915940;29;20285;-80
2023/01/07 11:48:48;;;;;;;1.25;1.15;;;9.80;99.90;;;;;;4915735;29;20081;-79
2023/01/07 11:51:14;;;;;;;1.30;1.10;;;9.90;99.90;;;;;;4913857;29;20544;-81
2023/01/07 11:53:50;;;;;;;1.40;0.90;;;9.80;99.90;;;;;;4917153;29;20126;-80
2023/01/07 11:56:24;;;;;;;6.78;1.15;;;9.80;99.90;;;;;;4914994;28;20050;-80
2023/01/07 11:59:12;;;;;;;3.03;2.08;;;9.80;99.90;;;;;;4926374;28;20155;-81
2023/01/07 12:01:52;;;;;;;1.08;1.00;;;9.80;99.90;;;;;;4912001;29;20049;-80
2023/01/07 12:04:31;;;;;;;1.20;0.90;;;9.80;99.90;;;;;;4906590;28;20044;-81
2023/01/07 12:07:01;;;;;;;0.80;0.75;;;9.80;99.90;;;;;;4906987;29;20055;-80
2023/01/07 12:09:33;;;;;;;1.50;0.80;;;9.80;99.90;;;;;;4910148;29;20291;-80
2023/01/07 12:12:30;;;;;;;1.48;1.05;;;9.80;99.90;;;;;;4923888;29;20693;-80
2023/01/07 12:14:56;;;;;;;4.40;0.93;;;9.80;99.90;;;;;;4917791;29;20406;-81
2023/01/07 12:17:24;;;;;;;1.70;0.95;;;9.80;99.90;;;;;;4924220;29;20464;-81
2023/01/07 12:20:20;;;;;;;0.95;0.60;;;9.70;99.90;;;;;;4923655;29;20039;-80
2023/01/07 12:23:02;;;;;;;2.50;1.35;;;9.80;99.90;;;;;;4922658;28;20493;-82
2023/01/07 12:25:45;;;;;;;2.40;1.20;;;9.80;99.90;;;;;;4937347;28;20509;-80
2023/01/07 12:28:25;;;;;;;1.90;0.80;;;9.80;99.90;;;;;;4920976;29;20283;-80
2023/01/07 12:31:21;;;;;;;1.52;1.40;;;9.80;99.90;;;;;;4914059;28;20055;-85
2023/01/07 12:34:21;;;;;;;1.27;1.00;;;9.80;99.90;;;;;;4983530;28;20044;-79
2023/01/07 12:37:12;;;;;;;1.95;1.63;;;9.80;99.90;;;;;;4908912;29;20822;-85
2023/01/07 12:39:43;;;;;;;1.95;1.27;;;9.90;99.90;;;;;;4922400;29;20090;-83
2023/01/07 12:42:19;;;;;;;1.27;0.90;;;9.90;99.90;;;;;;4920818;28;20494;-82
2023/01/07 12:44:56;;;;;;;2.35;1.08;;;9.80;99.90;;;;;;4897938;28;20040;-81
2023/01/07 12:47:38;;;;;;;0.68;0.47;;;9.90;99.90;;;;;;4917900;28;20059;-82
2023/01/07 12:50:12;;;;;;;1.23;0.88;;;9.90;99.90;;;;;;4926782;28;20048;-84
2023/01/07 12:52:51;;;;;;;1.15;0.82;;;9.90;99.90;;;;;;4914995;28;20458;-85
2023/01/07 12:55:24;;;;;;;1.15;1.05;;;9.90;99.90;;;;;;4919506;28;20044;-84
2023/01/07 12:58:12;;;;;;;1.20;0.90;;;9.80;99.90;;;;;;4920954;28;20043;-82
2023/01/07 13:00:56;;;;;;;0.95;0.95;;;9.80;99.90;;;;;;5002378;28;20044;-82
2023/01/07 13:03:28;;;;;;;0.50;0.50;;;9.80;99.90;;;;;;4922872;29;20052;-84
2023/01/07 13:06:37;;;;;;;0.90;0.90;;;9.90;99.90;;;;;;4930411;28;20044;-86